createdAt,value
2023-05-19T00:02:15.415Z,3.00
2023-05-19T00:05:02.861Z,3.53
2023-05-19T00:07:58.368Z,3.10
2023-05-19T00:10:52.369Z,4.05
2023-05-19T00:13:46.371Z,3.60
2023-05-19T00:16:41.427Z,3.38
2023-05-19T00:19:32.245Z,3.67
2023-05-19T00:22:26.458Z,3.45
2023-05-19T00:25:13.666Z,3.15
2023-05-19T00:28:08.407Z,3.42
2023-05-19T00:30:56.186Z,3.28
2023-05-19T00:33:49.430Z,3.30
2023-05-19T00:36:36.679Z,3.58
2023-05-19T00:39:30.425Z,3.58
2023-05-19T00:42:24.475Z,3.25
2023-05-19T00:45:11.686Z,3.83
2023-05-19T00:48:05.516Z,3.55
2023-05-19T00:51:04.446Z,3.53
2023-05-19T00:53:58.507Z,4.15
2023-05-19T00:56:45.682Z,3.78
2023-05-19T00:59:39.456Z,3.03
2023-05-19T01:02:29.758Z,3.40
2023-05-19T01:05:24.478Z,3.50
2023-05-19T01:08:18.466Z,3.22
2023-05-19T01:11:13.486Z,3.17
2023-05-19T01:14:07.463Z,3.67
2023-05-19T01:17:34.353Z,3.85
2023-05-19T01:20:49.484Z,3.05
2023-05-19T01:23:51.322Z,3.97
2023-05-19T01:27:09.514Z,3.25
2023-05-19T01:30:25.486Z,3.75
2023-05-19T01:33:15.165Z,4.15
2023-05-19T01:36:10.469Z,3.20
2023-05-19T01:39:05.566Z,3.53
2023-05-19T01:41:53.984Z,4.05
2023-05-19T01:44:48.525Z,3.90
2023-05-19T01:47:39.813Z,3.50
2023-05-19T01:50:34.835Z,3.90
2023-05-19T01:53:22.163Z,3.33
2023-05-19T01:56:15.519Z,3.60
2023-05-19T01:59:23.584Z,3.90
2023-05-19T02:02:48.555Z,3.78
2023-05-19T02:06:05.553Z,4.30
2023-05-19T02:09:22.630Z,4.28
2023-05-19T02:12:11.843Z,4.20
2023-05-19T02:15:18.563Z,4.03
2023-05-19T02:18:09.436Z,3.72
2023-05-19T02:21:03.588Z,3.97
2023-05-19T02:23:57.586Z,4.32
2023-05-19T02:26:51.611Z,4.40
2023-05-19T02:29:45.596Z,4.25
2023-05-19T02:32:39.644Z,4.40
2023-05-19T02:35:27.919Z,3.90
2023-05-19T02:38:21.619Z,4.47
2023-05-19T02:41:15.600Z,4.47
2023-05-19T02:44:02.698Z,4.13
2023-05-19T02:46:56.615Z,3.92
2023-05-19T02:49:44.246Z,5.18
2023-05-19T02:52:37.651Z,4.53
2023-05-19T02:55:24.782Z,4.15
2023-05-19T02:58:18.675Z,4.35
2023-05-19T03:01:12.645Z,4.00
2023-05-19T03:04:06.780Z,4.20
2023-05-19T03:06:57.639Z,4.60
2023-05-19T03:09:51.719Z,5.65
2023-05-19T03:12:51.716Z,4.32
2023-05-19T03:15:52.672Z,4.88
2023-05-19T03:18:46.678Z,4.93
2023-05-19T03:21:40.669Z,5.07
2023-05-19T03:24:27.868Z,4.57
2023-05-19T03:27:21.673Z,5.10
2023-05-19T03:30:15.679Z,4.43
2023-05-19T03:33:02.970Z,5.13
2023-05-19T03:35:56.729Z,5.53
2023-05-19T03:38:50.733Z,5.53
2023-05-19T03:41:37.864Z,4.80
2023-05-19T03:44:31.691Z,5.28
2023-05-19T03:47:25.711Z,5.35
2023-05-19T03:50:13.907Z,5.07
2023-05-19T03:53:14.706Z,5.35
2023-05-19T03:56:01.939Z,5.00
2023-05-19T03:58:56.725Z,5.43
2023-05-19T04:01:50.933Z,5.25
2023-05-19T04:04:38.198Z,5.60
2023-05-19T04:07:32.755Z,5.82
2023-05-19T04:10:20.671Z,5.00
2023-05-19T04:13:14.717Z,5.15
2023-05-19T04:16:08.807Z,5.10
2023-05-19T04:19:03.820Z,4.50
2023-05-19T04:21:57.815Z,4.57
2023-05-19T04:24:52.776Z,5.00
2023-05-19T04:27:46.773Z,5.78
2023-05-19T04:30:40.826Z,5.78
2023-05-19T04:33:29.393Z,5.43
2023-05-19T04:36:26.789Z,5.57
2023-05-19T04:39:20.781Z,6.50
2023-05-19T04:42:09.021Z,4.93
2023-05-19T04:45:02.830Z,5.10
2023-05-19T04:47:56.825Z,4.70
2023-05-19T04:50:50.836Z,4.80
2023-05-19T04:53:40.199Z,5.00
2023-05-19T04:56:35.817Z,5.35
2023-05-19T04:59:29.910Z,4.63
2023-05-19T05:02:17.152Z,5.13
2023-05-19T05:05:11.807Z,4.88
2023-05-19T05:07:59.326Z,6.55
2023-05-19T05:10:52.919Z,5.93
2023-05-19T05:13:40.406Z,5.38
2023-05-19T05:16:33.951Z,5.35
2023-05-19T05:19:22.324Z,4.80
2023-05-19T05:22:16.870Z,5.15
2023-05-19T05:25:10.937Z,5.75
2023-05-19T05:28:05.874Z,5.53
2023-05-19T05:30:59.829Z,5.80
2023-05-19T05:33:47.108Z,6.93
2023-05-19T05:36:41.865Z,6.45
2023-05-19T05:39:29.088Z,6.22
2023-05-19T05:42:22.892Z,5.85
2023-05-19T05:45:10.153Z,5.45
2023-05-19T05:48:04.109Z,4.95
2023-05-19T05:50:52.870Z,4.72
2023-05-19T05:53:53.901Z,5.22
2023-05-19T05:56:47.884Z,5.10
2023-05-19T05:59:35.022Z,4.90
2023-05-19T06:02:28.958Z,5.30
2023-05-19T06:05:16.579Z,4.85
2023-05-19T06:08:10.935Z,4.93
2023-05-19T06:11:04.943Z,5.00
2023-05-19T06:13:52.167Z,5.22
2023-05-19T06:16:45.915Z,5.10
2023-05-19T06:19:33.474Z,4.38
2023-05-19T06:22:26.962Z,3.50
2023-05-19T06:25:20.944Z,4.30
2023-05-19T06:28:08.069Z,4.00
2023-05-19T06:31:01.988Z,3.25
2023-05-19T06:33:49.079Z,6.10
2023-05-19T06:36:42.948Z,3.90
2023-05-19T06:39:30.133Z,4.70
2023-05-19T06:42:24.004Z,3.55
2023-05-19T06:45:11.367Z,3.30
2023-05-19T06:48:04.993Z,3.20
2023-05-19T06:50:52.223Z,3.47
2023-05-19T06:53:45.973Z,3.40
2023-05-19T06:56:33.223Z,4.35
2023-05-19T06:59:29.026Z,4.10
2023-05-19T07:02:23.038Z,4.70
2023-05-19T07:05:10.479Z,3.50
2023-05-19T07:08:04.013Z,3.00
2023-05-19T07:10:58.016Z,3.20
2023-05-19T07:13:45.169Z,2.10
2023-05-19T07:16:39.119Z,2.72
2023-05-19T07:19:26.379Z,3.05
2023-05-19T07:22:20.063Z,2.40
2023-05-19T07:25:08.319Z,2.10
2023-05-19T07:28:02.021Z,2.50
2023-05-19T07:30:56.113Z,1.75
2023-05-19T07:33:43.382Z,2.22
2023-05-19T07:36:38.131Z,2.53
2023-05-19T07:39:27.817Z,2.20
2023-05-19T07:42:21.096Z,2.15
2023-05-19T07:45:08.871Z,2.78
2023-05-19T07:48:03.195Z,2.42
2023-05-19T07:50:51.693Z,2.40
2023-05-19T07:53:45.127Z,3.13
2023-05-19T07:56:32.322Z,2.80
2023-05-19T07:59:26.111Z,2.20
2023-05-19T08:02:13.278Z,2.47
2023-05-19T08:05:07.165Z,2.47
2023-05-19T08:08:01.078Z,2.03
2023-05-19T08:10:48.197Z,2.30
2023-05-19T08:13:42.098Z,2.47
2023-05-19T08:16:36.107Z,2.08
2023-05-19T08:19:23.433Z,2.28
2023-05-19T08:22:17.150Z,2.95
2023-05-19T08:25:05.434Z,2.75
2023-05-19T08:27:59.154Z,2.75
2023-05-19T08:30:53.142Z,2.83
2023-05-19T08:33:47.158Z,2.28
2023-05-19T08:36:41.185Z,2.38
2023-05-19T08:39:28.481Z,1.90
2023-05-19T08:42:22.202Z,2.05
2023-05-19T08:45:09.682Z,2.10
2023-05-19T08:48:04.218Z,1.80
2023-05-19T08:51:21.179Z,2.20
2023-05-19T08:54:22.192Z,2.10
2023-05-19T08:57:16.899Z,2.22
2023-05-19T09:00:16.168Z,1.50
2023-05-19T09:03:22.884Z,1.52
2023-05-19T09:06:13.812Z,1.70
2023-05-19T09:09:07.196Z,1.70
2023-05-19T09:11:54.390Z,1.88
2023-05-19T09:14:48.217Z,1.50
2023-05-19T09:17:36.837Z,1.60
2023-05-19T09:20:30.221Z,1.40
2023-05-19T09:23:25.206Z,1.30
2023-05-19T09:26:12.393Z,1.20
2023-05-19T09:29:06.229Z,1.50
2023-05-19T09:31:56.100Z,1.42
2023-05-19T09:34:50.254Z,1.00
2023-05-19T09:37:40.733Z,1.30
2023-05-19T09:40:38.290Z,1.40
2023-05-19T09:43:29.394Z,1.77
2023-05-19T09:46:23.353Z,1.77
2023-05-19T09:49:17.299Z,1.38
2023-05-19T09:52:12.632Z,1.95
2023-05-19T09:55:00.273Z,1.65
2023-05-19T09:57:54.626Z,1.60
2023-05-19T10:00:42.147Z,1.73
2023-05-19T10:03:38.419Z,1.55
2023-05-19T10:06:26.841Z,1.33
2023-05-19T10:09:21.272Z,1.98
2023-05-19T10:12:11.026Z,1.55
2023-05-19T10:15:06.323Z,1.38
2023-05-19T10:17:53.977Z,1.42
2023-05-19T10:20:49.339Z,1.90
2023-05-19T10:23:43.317Z,2.00
2023-05-19T10:26:32.259Z,2.83
2023-05-19T10:29:34.459Z,2.40
2023-05-19T10:32:26.756Z,1.80
2023-05-19T10:35:35.896Z,2.00
2023-05-19T10:38:26.352Z,1.70
2023-05-19T10:41:46.870Z,1.95
2023-05-19T10:45:06.952Z,1.55
2023-05-19T10:48:01.395Z,1.67
2023-05-19T10:50:56.358Z,4.32
2023-05-19T10:53:56.447Z,2.70
2023-05-19T10:56:54.340Z,2.28
2023-05-19T10:59:42.125Z,1.75
2023-05-19T11:02:49.459Z,1.50
2023-05-19T11:05:43.534Z,1.50
2023-05-19T11:08:35.035Z,1.40
2023-05-19T11:11:29.570Z,2.40
2023-05-19T11:14:20.239Z,2.47
2023-05-19T11:17:21.414Z,2.20
2023-05-19T11:20:12.711Z,1.85
2023-05-19T11:23:15.590Z,1.60
2023-05-19T11:26:02.918Z,1.70
2023-05-19T11:28:56.383Z,2.55
2023-05-19T11:31:44.082Z,2.05
2023-05-19T11:34:38.425Z,2.17
2023-05-19T11:37:32.529Z,1.90
2023-05-19T11:40:21.597Z,2.28
2023-05-19T11:43:15.711Z,1.65
2023-05-19T11:46:02.966Z,1.90
2023-05-19T11:48:57.469Z,2.00
2023-05-19T11:51:44.963Z,1.77
2023-05-19T11:54:40.647Z,2.47
2023-05-19T11:57:28.678Z,1.70
2023-05-19T12:00:22.500Z,2.10
2023-05-19T12:03:10.052Z,1.38
2023-05-19T12:06:04.542Z,1.52
2023-05-19T12:08:59.694Z,1.30
2023-05-19T12:11:47.825Z,1.75
2023-05-19T12:14:42.472Z,1.85
2023-05-19T12:17:32.858Z,1.45
2023-05-19T12:20:26.509Z,1.40
2023-05-19T12:23:14.426Z,2.00
2023-05-19T12:26:08.533Z,1.88
2023-05-19T12:28:55.677Z,1.65
2023-05-19T12:31:53.608Z,1.85
2023-05-19T12:34:48.576Z,1.73
2023-05-19T12:37:47.543Z,2.00
2023-05-19T12:40:42.539Z,1.63
2023-05-19T12:43:36.515Z,1.85
2023-05-19T12:46:30.643Z,1.67
2023-05-19T12:49:17.829Z,1.48
2023-05-19T12:52:13.229Z,1.65
2023-05-19T12:55:06.189Z,1.90
2023-05-19T12:58:05.545Z,1.70
2023-05-19T13:01:05.678Z,1.45
2023-05-19T13:04:00.103Z,2.03
2023-05-19T13:06:49.576Z,1.90
2023-05-19T13:09:43.594Z,2.08
2023-05-19T13:12:30.829Z,1.90
2023-05-19T13:15:24.600Z,2.25
2023-05-19T13:18:19.665Z,2.15
2023-05-19T13:21:13.613Z,1.98
2023-05-19T13:24:00.706Z,2.28
2023-05-19T13:26:55.260Z,1.85
2023-05-19T13:29:49.769Z,2.25
2023-05-19T13:32:36.903Z,1.58
2023-05-19T13:35:30.623Z,1.55
2023-05-19T13:38:17.939Z,2.25
2023-05-19T13:41:12.200Z,2.58
2023-05-19T13:44:07.651Z,2.08
2023-05-19T13:47:01.697Z,2.20
2023-05-19T13:49:48.955Z,2.10
2023-05-19T13:52:48.669Z,1.95
2023-05-19T13:55:49.664Z,1.90
2023-05-19T13:58:36.796Z,1.98
2023-05-19T14:01:30.701Z,2.22
2023-05-19T14:04:25.676Z,1.75
2023-05-19T14:07:13.045Z,1.90
2023-05-19T14:10:06.882Z,2.20
2023-05-19T14:15:50.866Z,2.17
2023-05-19T14:18:44.704Z,2.28
2023-05-19T14:21:32.612Z,2.28
2023-05-19T14:24:26.689Z,1.75
2023-05-19T14:27:20.742Z,2.25
2023-05-19T14:30:14.742Z,2.33
2023-05-19T14:33:01.953Z,2.03
2023-05-19T14:35:55.733Z,2.42
2023-05-19T14:38:43.064Z,2.50
2023-05-19T14:41:36.761Z,2.30
2023-05-19T14:44:30.701Z,2.20
2023-05-19T14:47:26.301Z,2.30
2023-05-19T14:50:20.722Z,1.60
2023-05-19T14:53:07.871Z,1.95
2023-05-19T14:56:01.743Z,2.30
2023-05-19T14:58:48.841Z,2.10
2023-05-19T15:01:42.860Z,2.00
2023-05-19T15:04:30.208Z,1.80
2023-05-19T15:07:23.824Z,2.22
2023-05-19T15:10:11.269Z,2.00
2023-05-19T15:13:06.825Z,3.47
2023-05-19T15:16:08.297Z,2.80
2023-05-19T15:19:08.858Z,2.72
2023-05-19T15:21:56.038Z,2.75
2023-05-19T15:24:49.817Z,2.25
2023-05-19T15:27:44.116Z,2.08
2023-05-19T15:30:38.077Z,2.20
2023-05-19T15:33:25.510Z,2.50
2023-05-19T15:36:23.020Z,2.30
2023-05-19T15:39:10.148Z,2.20
2023-05-19T15:42:03.821Z,2.20
2023-05-19T15:44:50.964Z,1.88
2023-05-19T15:47:44.880Z,2.00
2023-05-19T15:50:38.882Z,2.25
2023-05-19T15:53:26.084Z,2.50
2023-05-19T15:56:22.905Z,2.80
2023-05-19T15:59:10.123Z,3.40
2023-05-19T16:02:03.922Z,3.60
2023-05-19T16:04:51.140Z,2.60
2023-05-19T16:07:44.897Z,2.50
2023-05-19T16:10:38.917Z,2.28
2023-05-19T16:13:26.289Z,2.35
2023-05-19T16:16:19.898Z,2.25
2023-05-19T16:19:13.936Z,2.80
2023-05-19T16:22:07.998Z,2.35
2023-05-19T16:24:55.075Z,2.60
2023-05-19T16:27:48.910Z,2.15
2023-05-19T16:30:42.898Z,2.58
2023-05-19T16:33:30.169Z,2.50
2023-05-19T16:36:23.954Z,2.17
2023-05-19T16:39:11.175Z,2.63
2023-05-19T16:42:04.944Z,3.25
2023-05-19T16:44:52.147Z,2.30
2023-05-19T16:47:50.151Z,2.38
2023-05-19T16:50:37.539Z,2.67
2023-05-19T16:53:31.930Z,2.40
2023-05-19T16:56:19.284Z,2.63
2023-05-19T16:59:13.940Z,3.80
2023-05-19T17:02:01.254Z,2.72
2023-05-19T17:04:55.050Z,2.58
2023-05-19T17:07:49.013Z,3.10
2023-05-19T17:10:38.541Z,3.13
2023-05-19T17:13:31.992Z,3.70
2023-05-19T17:16:19.278Z,3.83
2023-05-19T17:19:13.093Z,2.97
2023-05-19T17:22:00.288Z,2.83
2023-05-19T17:24:53.982Z,3.67
2023-05-19T17:27:41.140Z,2.78
2023-05-19T17:30:35.258Z,2.53
2023-05-19T17:33:22.606Z,2.85
2023-05-19T17:36:16.027Z,3.28
2023-05-19T17:39:03.694Z,3.30
2023-05-19T17:41:57.152Z,3.92
2023-05-19T17:44:51.034Z,3.60
2023-05-19T17:47:38.824Z,3.70
2023-05-19T17:50:33.143Z,3.30
2023-05-19T17:53:21.433Z,3.55
2023-05-19T17:56:18.029Z,3.28
2023-05-19T17:59:05.515Z,4.10
2023-05-19T18:01:59.153Z,3.38
2023-05-19T18:04:46.764Z,3.78
2023-05-19T18:07:46.138Z,4.07
2023-05-19T18:10:37.462Z,3.90
2023-05-19T18:13:33.081Z,4.95
2023-05-19T18:16:20.235Z,3.72
2023-05-19T18:19:14.115Z,3.30
2023-05-19T18:22:08.119Z,3.00
2023-05-19T18:25:03.111Z,3.15
2023-05-19T18:31:20.107Z,4.55
2023-05-19T18:34:15.255Z,3.40
2023-05-19T18:37:02.606Z,4.20
2023-05-19T18:39:57.257Z,4.07
2023-05-19T18:42:51.314Z,4.78
2023-05-19T18:45:38.640Z,4.53
2023-05-19T18:48:33.175Z,5.43
2023-05-19T18:51:48.154Z,6.43
2023-05-19T18:54:44.697Z,5.60
2023-05-19T18:57:31.965Z,4.80
2023-05-19T19:00:28.578Z,4.30
2023-05-19T19:03:18.879Z,3.60
2023-05-19T19:06:13.383Z,3.92
2023-05-19T19:09:00.635Z,3.58
2023-05-19T19:11:56.972Z,3.83
2023-05-19T19:14:44.210Z,3.65
2023-05-19T19:17:38.372Z,4.00
2023-05-19T19:20:25.899Z,3.78
2023-05-19T19:23:20.211Z,3.80
2023-05-19T19:26:09.215Z,4.53
2023-05-19T19:29:03.201Z,4.35
2023-05-19T19:31:52.806Z,3.58
2023-05-19T19:34:47.269Z,3.20
2023-05-19T19:37:34.763Z,4.05
2023-05-19T19:40:32.398Z,4.13
2023-05-19T19:43:29.289Z,4.07
2023-05-19T19:46:22.987Z,3.88
2023-05-19T19:49:16.410Z,3.08
2023-05-19T19:52:06.710Z,3.35
2023-05-19T19:55:00.270Z,3.30
2023-05-19T19:57:58.169Z,3.75
2023-05-19T20:00:52.433Z,3.10
2023-05-19T20:03:39.631Z,3.00
2023-05-19T20:06:33.420Z,3.17
2023-05-19T20:09:23.733Z,3.03
2023-05-19T20:12:17.281Z,3.50
2023-05-19T20:15:05.668Z,4.40
2023-05-19T20:17:59.310Z,3.63
2023-05-19T20:20:46.498Z,3.63
2023-05-19T20:23:40.316Z,3.75
2023-05-19T20:26:35.300Z,3.45
2023-05-19T20:29:23.834Z,2.90
2023-05-19T20:32:18.304Z,3.60
2023-05-19T20:35:05.907Z,3.00
2023-05-19T20:37:59.272Z,2.75
2023-05-19T20:40:47.727Z,3.20
2023-05-19T20:43:41.321Z,2.75
2023-05-19T20:46:28.535Z,3.30
2023-05-19T20:49:22.362Z,2.88
2023-05-19T20:52:16.314Z,3.13
2023-05-19T20:55:03.882Z,4.10
2023-05-19T20:57:57.451Z,3.58
2023-05-19T21:00:44.563Z,3.90
2023-05-19T21:03:38.316Z,3.38
2023-05-19T21:06:25.410Z,3.30
2023-05-19T21:09:19.337Z,3.40
2023-05-19T21:12:06.954Z,3.95
2023-05-19T21:15:00.314Z,2.92
2023-05-19T21:17:47.570Z,3.80
2023-05-19T21:20:41.324Z,3.30
2023-05-19T21:23:28.448Z,3.10
2023-05-19T21:26:22.322Z,3.03
2023-05-19T21:29:16.381Z,3.28
2023-05-19T21:32:10.362Z,4.47
2023-05-19T21:35:04.356Z,3.90
2023-05-19T21:37:51.444Z,2.83
2023-05-19T21:40:45.391Z,2.72
2023-05-19T21:43:32.604Z,3.40
2023-05-19T21:46:26.403Z,3.05
2023-05-19T21:49:13.562Z,3.30
2023-05-19T21:52:07.494Z,2.80
2023-05-19T21:55:02.431Z,3.55
2023-05-19T21:57:56.407Z,3.10
2023-05-19T22:00:58.392Z,3.10
2023-05-19T22:03:45.829Z,2.97
2023-05-19T22:06:40.385Z,3.08
2023-05-19T22:09:27.514Z,2.92
2023-05-19T22:12:21.408Z,3.13
2023-05-19T22:15:15.431Z,3.38
2023-05-19T22:18:09.476Z,3.97
2023-05-19T22:20:56.693Z,3.20
2023-05-19T22:23:50.444Z,2.70
2023-05-19T22:26:37.881Z,2.90
2023-05-19T22:29:31.452Z,3.00
2023-05-19T22:32:26.515Z,3.70
2023-05-19T22:35:13.795Z,2.80
2023-05-19T22:38:08.907Z,2.90
2023-05-19T22:40:57.621Z,2.70
2023-05-19T22:43:51.494Z,2.75
2023-05-19T22:46:38.647Z,3.17
2023-05-19T22:49:33.479Z,3.97
2023-05-19T22:52:20.598Z,3.42
2023-05-19T22:55:14.499Z,3.25
2023-05-19T22:58:01.647Z,3.65
2023-05-19T23:00:56.639Z,3.80
2023-05-19T23:03:44.226Z,3.05
2023-05-19T23:06:38.513Z,3.08
2023-05-19T23:09:33.528Z,3.13
2023-05-19T23:12:20.640Z,3.45
2023-05-19T23:15:15.533Z,3.08
2023-05-19T23:18:07.235Z,3.42
2023-05-19T23:21:01.531Z,2.93
2023-05-19T23:23:49.711Z,2.55
2023-05-19T23:26:43.591Z,3.20
2023-05-19T23:29:37.495Z,3.20
2023-05-19T23:32:31.576Z,3.35
2023-05-19T23:35:26.584Z,3.10
2023-05-19T23:38:14.737Z,3.67
2023-05-19T23:41:08.565Z,2.83
2023-05-19T23:43:55.754Z,3.63
2023-05-19T23:46:49.623Z,3.17
2023-05-19T23:49:36.764Z,3.10
2023-05-19T23:52:30.623Z,2.60
2023-05-19T23:55:17.910Z,2.97
2023-05-19T23:58:12.594Z,3.42
